Airfield :
LOGIN :

Register | Disclaimer

   EN    FR    IT 

 










Legend :    VFR   Marginal VFR   IFR   Intensive IFR   Very Intensive IFR
Visi :
Ceiling :
>= 8 km
>= 3000ft
5 to 8 km
1000 to 3000 ft
1500m to 5 km
500 to 1000 ft
800 to 1500m
200 to 500 ft
< 800m
< 200 ft
Symbols :   Thunderstorms  Fog  Heavy snow  Heavy precipitations  Wind > 20 kt
SIGMETs :     Misc.  Thunderstorms  Icing  Turbulence  Mountain Waves  Volcanic Ashes






- Airport Elevation : 508 ft
- IATA code : HRK


UKHH - Osnova

CURRENT METAR :
  • 280430Z 02002MPS 350V060 CAVOK 08/07 Q1022 R07/0///81 NOSIG

EXPIRED METARs :
  • 280400Z 01002MPS CAVOK 08/06 Q1021 R07/0///81 NOSIG
  • 280330Z 36002MPS CAVOK 07/06 Q1021 R07/0///81 NOSIG
  • 280300Z 35002MPS CAVOK 08/06 Q1021 R07/190079 NOSIG
  • 280230Z VRB01MPS CAVOK 07/06 Q1021 R07/190079 NOSIG

TAF TAF UKHH
Valid from the 28 at 00:00 until the 29 at 00:00 UTC


272307Z 2800/2824 36002MPS 2100 BR BKN007
TEMPO 2800/2805 0600 FG VV002
BECMG 2805/2806 03005MPS 9999 NSW BKN011
TEMPO 2806/2815 04007G13MPS 2100 -SHRA BKN007 BKN015CB
UKDV FIR / Europe



MET'MAP, your aeronautical weather chart ! - Copyright ORBIFLY December 2007 - Disclaimer

ORBIFLY MET'MAP TEAM :

Programming & Development : Alexandra Zaïnal
Concept & original design : Baudouin d'Aumeries
Assistance for programming : Marc-Olivier Méhu
Technical & hardware support : Manuel Goepfert

Contact : metmap@orbifly.com




SOURCES & CREDITS :

   NOAA